Time;durP1;ratioP1;P1;durP2;ratioP2;P2;SDS_P1;SDS_P2;PMS_P1;PMS_P2;Temp;Humidity;BMP_temperature;BMP_pressure;BME280_temperature;BME280_humidity;BME280_pressure;Samples;Min_cycle;Max_cycle;Signal;HPM_P1;HPM_P2
2023/04/26 00:02:23;;;;;;;3.75;2.60;;;18.60;52.20;;;;;;5008981;28;20204;-57
2023/04/26 00:04:57;;;;;;;5.70;2.72;;;18.60;52.20;;;;;;4999542;28;20201;-57
2023/04/26 00:07:28;;;;;;;3.33;1.95;;;18.60;52.10;;;;;;4993303;28;20304;-56
2023/04/26 00:10:02;;;;;;;3.92;2.05;;;18.60;52.10;;;;;;4993627;28;20206;-56
2023/04/26 00:12:35;;;;;;;4.20;2.20;;;18.60;52.10;;;;;;4993732;28;20599;-55
2023/04/26 00:15:06;;;;;;;3.65;2.20;;;18.60;52.70;;;;;;4993359;28;20231;-56
2023/04/26 00:17:37;;;;;;;4.40;2.05;;;18.60;52.10;;;;;;5009376;28;20217;-56
2023/04/26 00:20:10;;;;;;;4.13;2.25;;;18.70;52.10;;;;;;4997699;28;20225;-54
2023/04/26 00:22:41;;;;;;;4.45;2.42;;;18.70;52.10;;;;;;4993035;28;20248;-56
2023/04/26 00:25:14;;;;;;;4.00;2.63;;;18.70;52.20;;;;;;5005545;28;20220;-56
2023/04/26 00:27:44;;;;;;;5.15;2.25;;;18.70;52.40;;;;;;5012308;28;20586;-55
2023/04/26 00:30:16;;;;;;;5.53;2.70;;;18.70;52.40;;;;;;4997406;28;20198;-56
2023/04/26 00:32:46;;;;;;;5.72;2.70;;;18.80;52.50;;;;;;5002780;28;20204;-56
2023/04/26 00:35:17;;;;;;;5.38;2.33;;;18.80;52.40;;;;;;4997256;28;20776;-53
2023/04/26 00:37:48;;;;;;;6.28;2.75;;;18.80;52.40;;;;;;4992410;28;20229;-54
2023/04/26 00:40:20;;;;;;;5.68;2.40;;;18.80;52.30;;;;;;4994123;28;20206;-57
2023/04/26 00:42:51;;;;;;;4.47;2.40;;;18.80;52.30;;;;;;5007016;28;20202;-56
2023/04/26 00:45:21;;;;;;;4.07;2.10;;;18.80;52.30;;;;;;4993026;28;20201;-54
2023/04/26 00:47:53;;;;;;;3.75;2.00;;;18.80;52.90;;;;;;4992921;28;20221;-56
2023/04/26 00:50:24;;;;;;;5.47;2.30;;;18.90;52.30;;;;;;4992785;28;20277;-55
2023/04/26 00:52:55;;;;;;;5.53;2.42;;;18.90;52.30;;;;;;4994815;28;20801;-56
2023/04/26 00:55:28;;;;;;;4.70;2.15;;;18.90;52.20;;;;;;4994564;28;20736;-56
2023/04/26 00:57:58;;;;;;;4.70;2.35;;;18.90;52.20;;;;;;4992956;28;20222;-56
2023/04/26 01:00:29;;;;;;;3.33;2.13;;;18.90;52.20;;;;;;4992485;28;20194;-56
2023/04/26 01:03:00;;;;;;;4.30;2.33;;;18.90;52.20;;;;;;5007917;28;20197;-56
2023/04/26 01:05:31;;;;;;;4.03;2.10;;;19.00;52.30;;;;;;4999833;28;20258;-56
2023/04/26 01:08:03;;;;;;;4.43;2.20;;;19.00;52.30;;;;;;5009743;28;20223;-55
2023/04/26 01:10:36;;;;;;;4.18;2.20;;;19.00;52.30;;;;;;4992200;28;20194;-56
2023/04/26 01:13:07;;;;;;;5.57;2.22;;;19.00;52.30;;;;;;4992501;28;20198;-56
2023/04/26 01:15:38;;;;;;;4.57;2.50;;;19.00;52.30;;;;;;4992575;28;20229;-56
2023/04/26 01:18:08;;;;;;;3.95;2.03;;;19.10;52.30;;;;;;4992213;28;20238;-55
2023/04/26 01:20:39;;;;;;;4.68;2.20;;;19.10;52.30;;;;;;4996466;28;20193;-56
2023/04/26 01:23:12;;;;;;;3.25;1.90;;;19.10;52.30;;;;;;5012298;28;20219;-56
2023/04/26 01:25:43;;;;;;;5.60;2.13;;;19.10;52.30;;;;;;4995866;28;20233;-56
2023/04/26 01:28:13;;;;;;;4.38;2.28;;;19.10;52.30;;;;;;4992528;28;20221;-55
2023/04/26 01:30:44;;;;;;;4.32;2.20;;;19.10;52.20;;;;;;4992639;28;20323;-55
2023/04/26 01:33:15;;;;;;;4.63;2.35;;;19.10;52.20;;;;;;5000879;28;20713;-56
2023/04/26 01:35:46;;;;;;;3.72;2.15;;;19.20;52.30;;;;;;4987790;28;20229;-57
2023/04/26 01:38:18;;;;;;;3.85;2.00;;;19.20;52.20;;;;;;4991023;28;20217;-55
2023/04/26 01:40:49;;;;;;;3.97;2.33;;;19.20;52.20;;;;;;4997484;28;20290;-56
2023/04/26 01:43:21;;;;;;;3.53;1.75;;;19.20;52.20;;;;;;5011534;28;20211;-57
2023/04/26 01:45:52;;;;;;;4.20;2.47;;;19.20;52.20;;;;;;5010071;28;20196;-56
2023/04/26 01:48:23;;;;;;;4.50;2.00;;;19.20;52.20;;;;;;5011608;28;20224;-55
2023/04/26 01:50:53;;;;;;;3.85;2.22;;;19.20;52.20;;;;;;4994620;28;20202;-56
2023/04/26 01:53:26;;;;;;;3.45;1.90;;;19.20;52.20;;;;;;4992342;28;20656;-57
2023/04/26 01:55:56;;;;;;;3.35;1.80;;;19.20;52.20;;;;;;4991085;28;20225;-56
2023/04/26 01:58:27;;;;;;;4.10;2.30;;;19.30;52.30;;;;;;4991402;28;20689;-57
2023/04/26 02:00:58;;;;;;;4.70;2.00;;;19.30;52.30;;;;;;4993294;28;20205;-55
2023/04/26 02:03:29;;;;;;;3.40;1.80;;;19.30;52.30;;;;;;5008093;28;20232;-57
2023/04/26 02:05:59;;;;;;;3.42;1.70;;;19.30;52.30;;;;;;5002181;28;20205;-56
2023/04/26 02:08:32;;;;;;;4.43;1.70;;;19.30;52.20;;;;;;5010815;28;20225;-56
2023/04/26 02:11:03;;;;;;;4.35;2.10;;;19.30;52.20;;;;;;5009089;28;20193;-56
2023/04/26 02:13:34;;;;;;;3.35;2.00;;;19.40;52.20;;;;;;5011245;28;20243;-55
2023/04/26 02:16:05;;;;;;;4.68;1.77;;;19.40;52.20;;;;;;4994784;28;20776;-54
2023/04/26 02:18:35;;;;;;;3.00;2.13;;;19.30;52.10;;;;;;4991288;28;20252;-56
2023/04/26 02:21:10;;;;;;;4.18;2.10;;;19.40;52.10;;;;;;4990985;28;20194;-55
2023/04/26 02:23:42;;;;;;;4.13;2.00;;;19.30;52.10;;;;;;4990678;28;20292;-57
2023/04/26 02:26:13;;;;;;;3.72;2.03;;;19.40;52.10;;;;;;4996155;28;20208;-54
2023/04/26 02:28:44;;;;;;;4.25;2.30;;;19.40;52.10;;;;;;5010501;28;20200;-52
2023/04/26 02:31:14;;;;;;;4.50;1.92;;;19.40;52.10;;;;;;4988550;28;20208;-56
2023/04/26 02:33:45;;;;;;;4.57;1.92;;;19.40;52.10;;;;;;5009430;28;20680;-56
2023/04/26 02:36:16;;;;;;;3.00;2.05;;;19.40;52.10;;;;;;5006754;28;20204;-56
2023/04/26 02:38:48;;;;;;;3.35;1.83;;;19.40;52.20;;;;;;5004731;28;20198;-55
2023/04/26 02:41:19;;;;;;;4.63;2.28;;;19.40;52.30;;;;;;4991210;28;20196;-57
2023/04/26 02:43:49;;;;;;;4.13;1.75;;;19.50;52.30;;;;;;4996598;28;20208;-53
2023/04/26 02:46:20;;;;;;;3.25;2.00;;;19.40;52.20;;;;;;4996852;28;20186;-55
2023/04/26 02:48:51;;;;;;;3.08;1.92;;;19.40;52.20;;;;;;4991495;28;20201;-57
2023/04/26 02:51:21;;;;;;;4.32;1.88;;;19.50;52.20;;;;;;4993934;28;20201;-56
2023/04/26 02:53:54;;;;;;;3.90;1.90;;;19.50;52.20;;;;;;4990616;28;20201;-55
2023/04/26 02:56:24;;;;;;;3.13;1.90;;;19.50;52.20;;;;;;4990951;28;20197;-55
2023/04/26 02:58:55;;;;;;;5.05;2.40;;;19.50;52.20;;;;;;4990688;28;20205;-56
2023/04/26 03:01:26;;;;;;;3.45;1.80;;;19.50;52.20;;;;;;5002055;28;20220;-54
2023/04/26 03:03:57;;;;;;;4.22;1.88;;;19.50;52.10;;;;;;5007971;28;20681;-57
2023/04/26 03:06:28;;;;;;;3.35;1.70;;;19.50;52.20;;;;;;4996428;28;20221;-55
2023/04/26 03:09:01;;;;;;;4.05;1.92;;;19.50;52.20;;;;;;4992871;28;20272;-55
2023/04/26 03:11:31;;;;;;;3.20;1.70;;;19.50;52.20;;;;;;5006414;28;20204;-56
2023/04/26 03:14:05;;;;;;;3.65;1.83;;;19.50;52.10;;;;;;5010111;28;20215;-57
2023/04/26 03:16:44;;;;;;;2.65;1.80;;;19.50;52.20;;;;;;4993008;28;20221;-57
2023/04/26 03:19:14;;;;;;;3.83;1.85;;;19.50;52.20;;;;;;4990739;28;20205;-56
2023/04/26 03:21:45;;;;;;;2.72;1.50;;;19.50;52.20;;;;;;4993195;28;20194;-56
2023/04/26 03:24:17;;;;;;;3.00;1.80;;;19.50;52.20;;;;;;4994929;28;20206;-56
2023/04/26 03:26:48;;;;;;;1.95;1.70;;;19.50;52.20;;;;;;5008051;28;20708;-56
2023/04/26 03:29:19;;;;;;;3.88;2.15;;;19.60;52.20;;;;;;5014056;28;20193;-55
2023/04/26 03:31:50;;;;;;;4.55;1.90;;;19.60;52.30;;;;;;4998703;28;20201;-57
2023/04/26 03:34:20;;;;;;;3.13;1.88;;;19.50;52.20;;;;;;5014551;28;20192;-57
2023/04/26 03:36:51;;;;;;;3.53;1.90;;;19.50;52.10;;;;;;5011833;28;20216;-57
2023/04/26 03:39:23;;;;;;;3.88;2.38;;;19.60;52.20;;;;;;5010234;28;20206;-56
2023/04/26 03:41:54;;;;;;;4.22;2.05;;;19.60;52.20;;;;;;4991705;28;20206;-58
2023/04/26 03:44:25;;;;;;;5.00;2.20;;;19.50;52.10;;;;;;4994085;28;20209;-57
2023/04/26 03:46:55;;;;;;;3.50;2.15;;;19.60;52.10;;;;;;4993342;28;20276;-57
2023/04/26 03:49:26;;;;;;;4.47;2.28;;;19.60;52.10;;;;;;4994247;28;20202;-57
2023/04/26 03:51:56;;;;;;;4.50;2.05;;;19.60;52.20;;;;;;5004088;28;20193;-55
2023/04/26 03:54:29;;;;;;;2.92;2.15;;;19.50;52.10;;;;;;5013151;28;20533;-57
2023/04/26 03:57:00;;;;;;;3.35;2.17;;;19.60;52.80;;;;;;4995312;28;20213;-55
2023/04/26 03:59:30;;;;;;;3.45;2.10;;;19.60;52.20;;;;;;4993748;28;20193;-57
2023/04/26 04:02:01;;;;;;;3.85;2.10;;;19.50;52.10;;;;;;5008194;28;20197;-57
2023/04/26 04:04:32;;;;;;;3.63;2.17;;;19.60;52.20;;;;;;5002249;28;20200;-58
2023/04/26 04:07:02;;;;;;;4.93;2.30;;;19.60;52.10;;;;;;4994347;28;20600;-54
2023/04/26 04:09:35;;;;;;;3.55;2.17;;;19.60;52.10;;;;;;4993553;28;20552;-56
2023/04/26 04:12:06;;;;;;;4.20;2.22;;;19.60;52.10;;;;;;4993919;28;20573;-58
2023/04/26 04:14:36;;;;;;;4.80;2.30;;;19.60;52.10;;;;;;4993240;28;20209;-56
2023/04/26 04:17:07;;;;;;;2.95;2.00;;;19.60;52.10;;;;;;4992767;28;20225;-58
2023/04/26 04:19:38;;;;;;;5.22;2.15;;;19.60;52.10;;;;;;4993093;28;20637;-57
2023/04/26 04:22:09;;;;;;;4.28;2.22;;;19.60;52.00;;;;;;4993618;28;20220;-57
2023/04/26 04:24:43;;;;;;;5.82;2.17;;;19.60;52.00;;;;;;4993861;28;20252;-55
2023/04/26 04:27:13;;;;;;;4.50;2.30;;;19.60;52.00;;;;;;5006100;28;20286;-58
2023/04/26 04:29:45;;;;;;;4.80;2.63;;;19.60;52.00;;;;;;5001229;28;20189;-56
2023/04/26 04:32:16;;;;;;;2.95;2.00;;;19.60;52.00;;;;;;4999097;28;20255;-57
2023/04/26 04:34:46;;;;;;;5.97;2.63;;;19.60;52.00;;;;;;5000740;28;20559;-56
2023/04/26 04:37:17;;;;;;;3.35;1.95;;;19.60;52.00;;;;;;4993104;28;20221;-57
2023/04/26 04:39:49;;;;;;;5.25;2.05;;;19.50;52.00;;;;;;4993058;28;20658;-56
2023/04/26 04:42:20;;;;;;;4.90;2.28;;;19.50;52.00;;;;;;5006246;28;20198;-56
2023/04/26 04:44:51;;;;;;;3.97;2.47;;;19.60;52.00;;;;;;4993067;28;20201;-57
2023/04/26 04:47:21;;;;;;;5.10;2.40;;;19.60;52.00;;;;;;4995589;28;20205;-55
2023/04/26 04:49:52;;;;;;;3.15;2.13;;;19.60;52.00;;;;;;4995664;28;20197;-58
2023/04/26 04:52:23;;;;;;;3.42;1.92;;;19.60;52.00;;;;;;5005566;28;20207;-57
2023/04/26 04:54:55;;;;;;;3.83;2.08;;;19.50;51.90;;;;;;5000800;28;20234;-57
2023/04/26 04:57:26;;;;;;;4.63;2.30;;;19.60;52.00;;;;;;5007298;28;20236;-57
2023/04/26 04:59:57;;;;;;;5.40;2.30;;;19.60;51.90;;;;;;4999894;28;20205;-57
2023/04/26 05:02:27;;;;;;;4.47;2.35;;;19.60;51.90;;;;;;5000760;28;20769;-58
2023/04/26 05:04:58;;;;;;;4.47;2.53;;;19.60;51.90;;;;;;4999958;28;20193;-58
2023/04/26 05:07:28;;;;;;;5.95;2.47;;;19.50;51.90;;;;;;4992261;28;20221;-56
2023/04/26 05:10:01;;;;;;;4.82;2.63;;;19.50;51.90;;;;;;4992813;28;20206;-57
2023/04/26 05:12:32;;;;;;;4.90;2.30;;;19.50;51.90;;;;;;5010978;28;20203;-58
2023/04/26 05:15:03;;;;;;;4.28;2.10;;;19.60;52.00;;;;;;4999580;28;20308;-58
2023/04/26 05:17:34;;;;;;;3.35;2.30;;;19.50;51.90;;;;;;5003284;28;20897;-56
2023/04/26 05:20:06;;;;;;;4.97;2.30;;;19.50;51.90;;;;;;5000834;28;20232;-58
2023/04/26 05:22:38;;;;;;;3.92;2.30;;;19.50;51.90;;;;;;4992663;28;20208;-57
2023/04/26 05:25:12;;;;;;;4.97;2.80;;;19.50;52.00;;;;;;4992672;28;20193;-57
2023/04/26 05:27:44;;;;;;;4.53;2.47;;;19.50;51.90;;;;;;4999341;28;20223;-56
2023/04/26 05:30:15;;;;;;;4.22;2.17;;;19.50;52.00;;;;;;4998977;28;20598;-56
2023/04/26 05:32:46;;;;;;;3.50;2.30;;;19.50;52.00;;;;;;5002828;28;20568;-57
2023/04/26 05:35:16;;;;;;;3.33;2.45;;;19.50;52.00;;;;;;4998723;28;20217;-56
2023/04/26 05:37:47;;;;;;;4.15;2.53;;;19.50;52.00;;;;;;4991438;28;20221;-55
2023/04/26 05:40:19;;;;;;;3.65;2.55;;;19.50;51.90;;;;;;4991456;28;20732;-57
2023/04/26 05:42:50;;;;;;;3.50;2.42;;;19.50;52.00;;;;;;4991457;28;20671;-54
2023/04/26 05:45:21;;;;;;;4.25;2.28;;;19.50;51.90;;;;;;4991338;28;20201;-57
2023/04/26 05:47:52;;;;;;;3.75;2.20;;;19.50;52.00;;;;;;4992281;28;20233;-57
2023/04/26 05:50:22;;;;;;;3.90;2.40;;;19.50;52.00;;;;;;4991032;28;20232;-56
2023/04/26 05:52:53;;;;;;;4.15;2.42;;;19.50;51.90;;;;;;4991352;28;20197;-55
2023/04/26 05:55:25;;;;;;;3.42;2.10;;;19.50;52.00;;;;;;4994045;28;20283;-57
2023/04/26 05:57:57;;;;;;;3.63;2.50;;;19.50;52.00;;;;;;5011214;28;20221;-56
2023/04/26 06:00:28;;;;;;;4.28;2.67;;;19.50;52.00;;;;;;4994163;28;20205;-53
2023/04/26 06:02:58;;;;;;;3.45;2.20;;;19.50;52.00;;;;;;5002504;28;20203;-57
2023/04/26 06:05:29;;;;;;;4.13;2.75;;;19.50;52.00;;;;;;4997344;28;20197;-57
2023/04/26 06:08:00;;;;;;;4.72;2.58;;;19.50;52.00;;;;;;4990585;28;20225;-57
2023/04/26 06:10:33;;;;;;;3.22;2.20;;;19.50;51.90;;;;;;4990485;28;20653;-56
2023/04/26 06:13:03;;;;;;;4.18;2.20;;;19.50;52.00;;;;;;4991452;28;20390;-58
2023/04/26 06:15:34;;;;;;;4.22;2.53;;;19.50;51.90;;;;;;4991756;28;20217;-58
2023/04/26 06:18:06;;;;;;;3.97;2.60;;;19.50;52.00;;;;;;4990950;28;20229;-55
2023/04/26 06:20:36;;;;;;;3.13;2.40;;;19.50;51.90;;;;;;4991607;28;20202;-57
2023/04/26 06:23:07;;;;;;;3.67;2.60;;;19.40;51.90;;;;;;4991101;28;20248;-55
2023/04/26 06:25:43;;;;;;;3.75;2.38;;;19.40;51.90;;;;;;4991249;28;20204;-57
2023/04/26 06:28:14;;;;;;;3.20;2.38;;;19.40;51.90;;;;;;4990795;28;20217;-56
2023/04/26 06:30:45;;;;;;;4.13;2.55;;;19.40;51.90;;;;;;4971847;28;20198;-56
2023/04/26 06:36:37;;;;;;;3.72;2.40;;;19.40;52.00;;;;;;4991281;28;20313;-57
2023/04/26 06:39:08;;;;;;;4.22;2.95;;;19.40;51.90;;;;;;4990878;28;20201;-58
2023/04/26 06:42:17;;;;;;;4.70;2.60;;;19.40;52.00;;;;;;4993140;28;20653;-58
2023/04/26 06:44:47;;;;;;;3.03;2.15;;;19.40;52.00;;;;;;4991955;28;20709;-56
2023/04/26 06:47:18;;;;;;;4.25;2.53;;;19.40;52.00;;;;;;4991911;28;20221;-56
2023/04/26 06:49:49;;;;;;;4.80;2.80;;;19.40;52.00;;;;;;4987998;28;20676;-57
2023/04/26 06:52:19;;;;;;;4.88;2.58;;;19.40;52.00;;;;;;4990649;28;20189;-57
2023/04/26 06:54:50;;;;;;;3.75;2.58;;;19.30;52.00;;;;;;4991348;28;20212;-56
2023/04/26 06:57:22;;;;;;;5.78;3.00;;;19.40;52.00;;;;;;4994769;28;20229;-58
2023/04/26 06:59:53;;;;;;;5.07;2.90;;;19.40;52.00;;;;;;4995682;28;20446;-58
2023/04/26 07:02:24;;;;;;;5.22;3.13;;;19.40;52.00;;;;;;5010951;28;20201;-57
2023/04/26 07:04:54;;;;;;;4.95;3.00;;;19.30;51.90;;;;;;5002772;28;20288;-59
2023/04/26 07:07:25;;;;;;;4.30;2.70;;;19.30;52.00;;;;;;4994139;28;20213;-57
2023/04/26 07:09:56;;;;;;;4.55;2.53;;;19.30;52.00;;;;;;4994244;28;20193;-57
2023/04/26 07:12:28;;;;;;;4.65;3.08;;;19.30;52.00;;;;;;4995171;28;20212;-59
2023/04/26 07:15:00;;;;;;;4.55;2.42;;;19.30;52.00;;;;;;4994568;28;20197;-58
2023/04/26 07:17:30;;;;;;;5.32;3.13;;;19.30;52.00;;;;;;4994600;28;20229;-58
2023/04/26 07:20:01;;;;;;;4.25;3.05;;;19.30;52.00;;;;;;4994291;28;20650;-58
2023/04/26 07:22:32;;;;;;;3.58;2.80;;;19.30;52.00;;;;;;4994535;28;20201;-58
2023/04/26 07:25:03;;;;;;;5.43;3.13;;;19.30;52.00;;;;;;4995631;28;20190;-58
2023/04/26 07:27:36;;;;;;;5.03;3.15;;;19.30;52.00;;;;;;4994740;28;20256;-59
2023/04/26 07:30:07;;;;;;;5.40;3.10;;;19.30;52.00;;;;;;4994957;28;20197;-58
2023/04/26 07:32:38;;;;;;;4.60;3.00;;;19.30;52.00;;;;;;5004115;28;20229;-56
2023/04/26 07:35:14;;;;;;;4.30;2.60;;;19.30;52.00;;;;;;5002743;28;20197;-57
2023/04/26 07:37:45;;;;;;;6.03;3.03;;;19.30;52.00;;;;;;4992901;28;20260;-58
2023/04/26 07:40:17;;;;;;;4.80;3.10;;;19.30;52.00;;;;;;4993904;28;20193;-59
2023/04/26 07:42:50;;;;;;;4.28;3.13;;;19.20;51.90;;;;;;4994260;28;20271;-57
2023/04/26 07:45:21;;;;;;;3.78;2.60;;;19.30;52.00;;;;;;4994539;28;20661;-57
2023/04/26 07:47:52;;;;;;;3.33;2.80;;;19.20;51.90;;;;;;4995045;28;20226;-58
2023/04/26 07:50:22;;;;;;;3.97;2.70;;;19.20;51.90;;;;;;4994944;28;20860;-57
2023/04/26 07:52:53;;;;;;;4.28;2.75;;;19.20;52.00;;;;;;4994274;28;20268;-59
2023/04/26 07:55:24;;;;;;;5.00;3.55;;;19.20;52.00;;;;;;4994863;28;20202;-55
2023/04/26 07:57:56;;;;;;;4.53;3.13;;;19.20;52.00;;;;;;4994952;28;20748;-54
2023/04/26 08:00:27;;;;;;;4.03;3.10;;;19.20;52.00;;;;;;4994988;28;20201;-54
2023/04/26 08:02:57;;;;;;;4.30;2.78;;;19.20;52.00;;;;;;4995411;28;20605;-57
2023/04/26 08:05:28;;;;;;;3.65;2.53;;;19.20;52.00;;;;;;5007804;28;20193;-55
2023/04/26 08:08:00;;;;;;;5.05;3.03;;;19.20;52.00;;;;;;5012646;28;20216;-56
2023/04/26 08:10:30;;;;;;;3.55;2.70;;;19.10;51.90;;;;;;5013815;28;20207;-57
2023/04/26 08:13:04;;;;;;;4.15;3.00;;;19.10;51.90;;;;;;5013002;28;20239;-57
2023/04/26 08:15:34;;;;;;;4.30;3.25;;;19.20;52.00;;;;;;5013803;28;20197;-57
2023/04/26 08:18:05;;;;;;;4.97;3.38;;;19.20;52.00;;;;;;5013781;28;20231;-56
2023/04/26 08:20:36;;;;;;;4.65;3.03;;;19.10;51.90;;;;;;5013760;28;20284;-57
2023/04/26 08:23:06;;;;;;;4.53;2.95;;;19.10;51.90;;;;;;5013354;28;20200;-59
2023/04/26 08:25:37;;;;;;;4.28;3.10;;;19.10;51.90;;;;;;5013760;28;20197;-56
2023/04/26 08:28:13;;;;;;;4.15;2.95;;;19.10;51.90;;;;;;5013599;28;20220;-58
2023/04/26 08:30:44;;;;;;;4.60;2.85;;;19.10;51.90;;;;;;5013552;28;20196;-54
2023/04/26 08:33:14;;;;;;;4.28;3.08;;;19.10;51.90;;;;;;5013473;28;20204;-55
2023/04/26 08:35:45;;;;;;;3.17;2.60;;;19.10;51.90;;;;;;5013510;28;20208;-53
2023/04/26 08:38:16;;;;;;;4.25;2.63;;;19.10;52.00;;;;;;5013070;28;20220;-54
2023/04/26 08:40:48;;;;;;;4.18;2.50;;;19.10;51.90;;;;;;5013701;28;20196;-55
2023/04/26 08:43:21;;;;;;;4.90;2.63;;;19.10;52.00;;;;;;5013459;28;20208;-55
2023/04/26 08:45:51;;;;;;;3.75;2.45;;;19.10;52.00;;;;;;5013318;28;20197;-57
2023/04/26 08:48:22;;;;;;;4.32;3.08;;;19.10;52.00;;;;;;5004404;28;20214;-56
2023/04/26 08:50:53;;;;;;;4.97;2.83;;;19.10;52.00;;;;;;4992550;28;20201;-55
2023/04/26 08:53:24;;;;;;;4.00;2.45;;;19.00;52.00;;;;;;4993707;28;20651;-59
2023/04/26 08:55:56;;;;;;;4.10;3.15;;;19.00;52.10;;;;;;4993907;28;20212;-57
2023/04/26 08:58:29;;;;;;;4.60;2.67;;;19.00;52.10;;;;;;4992722;28;20798;-55
2023/04/26 09:01:00;;;;;;;3.75;2.60;;;19.00;52.00;;;;;;4992745;28;20196;-57
2023/04/26 09:03:31;;;;;;;4.25;2.88;;;19.00;52.00;;;;;;4992753;28;20194;-58
2023/04/26 09:06:02;;;;;;;4.88;3.03;;;19.00;52.00;;;;;;4977966;28;20197;-56
2023/04/26 09:08:34;;;;;;;4.75;2.88;;;19.00;52.00;;;;;;4983884;28;20190;-58
2023/04/26 09:11:06;;;;;;;4.28;2.83;;;19.00;52.10;;;;;;4989120;28;20685;-57
2023/04/26 09:13:38;;;;;;;5.60;3.05;;;19.00;52.00;;;;;;4991954;28;20198;-56
2023/04/26 09:16:10;;;;;;;4.13;2.80;;;19.00;52.00;;;;;;4992377;28;20201;-58
2023/04/26 09:18:53;;;;;;;4.18;3.05;;;19.00;52.00;;;;;;4993408;28;20197;-58
2023/04/26 09:21:24;;;;;;;4.05;3.00;;;19.00;52.00;;;;;;4992458;28;20590;-58
2023/04/26 09:24:03;;;;;;;4.20;2.67;;;19.00;52.00;;;;;;4992861;28;20197;-57
2023/04/26 09:26:34;;;;;;;4.10;3.13;;;19.00;52.10;;;;;;4992540;28;20223;-57
2023/04/26 09:29:23;;;;;;;5.20;3.05;;;19.00;52.10;;;;;;4991740;28;20208;-58
2023/04/26 09:31:53;;;;;;;3.63;2.92;;;18.90;52.00;;;;;;4996982;28;20197;-59
2023/04/26 09:34:24;;;;;;;3.72;2.67;;;19.00;52.00;;;;;;4989702;28;20677;-58
2023/04/26 09:36:55;;;;;;;3.58;2.80;;;18.90;52.00;;;;;;4992333;28;20232;-58
2023/04/26 09:39:36;;;;;;;5.85;3.10;;;18.90;52.00;;;;;;4991691;28;20236;-57
2023/04/26 09:42:07;;;;;;;3.10;2.47;;;18.90;52.00;;;;;;4992803;28;20657;-57
2023/04/26 09:44:40;;;;;;;4.38;3.08;;;18.90;52.00;;;;;;4992371;28;20805;-55
2023/04/26 09:47:12;;;;;;;4.68;2.75;;;18.90;52.00;;;;;;4991921;28;20228;-57
2023/04/26 09:49:50;;;;;;;4.95;2.80;;;18.90;52.00;;;;;;4972559;28;20205;-57
2023/04/26 09:52:21;;;;;;;5.25;2.88;;;18.90;52.00;;;;;;4972631;28;20194;-56
2023/04/26 09:54:52;;;;;;;3.90;2.90;;;18.80;52.00;;;;;;4991590;28;20209;-58
2023/04/26 09:57:23;;;;;;;4.38;2.80;;;18.90;52.10;;;;;;4991415;28;20233;-57
2023/04/26 09:59:56;;;;;;;4.18;2.40;;;18.80;52.00;;;;;;4991713;28;20666;-58
2023/04/26 10:02:29;;;;;;;3.33;2.40;;;18.80;52.00;;;;;;4991591;28;20232;-54
2023/04/26 10:05:00;;;;;;;4.47;2.70;;;18.80;52.00;;;;;;4992013;28;20194;-55
2023/04/26 10:07:31;;;;;;;3.50;2.55;;;18.80;52.00;;;;;;4991101;28;20252;-58
2023/04/26 10:10:02;;;;;;;3.65;2.60;;;18.80;52.00;;;;;;5004579;28;20205;-56
2023/04/26 10:12:33;;;;;;;3.97;2.63;;;18.80;52.60;;;;;;5009697;28;20207;-54
2023/04/26 10:15:07;;;;;;;3.20;2.10;;;18.80;52.00;;;;;;4992166;28;20776;-56
2023/04/26 10:17:37;;;;;;;4.43;3.03;;;18.80;52.00;;;;;;4991295;28;20236;-58
2023/04/26 10:20:12;;;;;;;4.43;2.67;;;18.80;52.00;;;;;;4991521;28;20205;-55
2023/04/26 10:22:47;;;;;;;4.25;2.85;;;18.80;52.00;;;;;;4990843;28;20197;-55
2023/04/26 10:25:18;;;;;;;3.92;2.42;;;18.80;52.00;;;;;;4991667;28;20201;-57
2023/04/26 10:27:54;;;;;;;4.45;2.63;;;18.80;52.00;;;;;;4991494;28;20221;-56
2023/04/26 10:30:27;;;;;;;3.70;2.30;;;18.80;52.00;;;;;;4990657;28;20283;-58
2023/04/26 10:33:25;;;;;;;3.50;2.53;;;18.80;52.00;;;;;;4999952;28;20658;-57
2023/04/26 10:36:14;;;;;;;2.83;2.22;;;18.80;52.00;;;;;;4991655;28;20284;-59
2023/04/26 10:39:22;;;;;;;3.42;2.28;;;18.80;52.00;;;;;;4991723;28;20217;-57
2023/04/26 10:41:52;;;;;;;4.20;2.25;;;18.70;52.00;;;;;;4991204;28;20201;-56
2023/04/26 10:44:44;;;;;;;3.97;2.67;;;18.80;52.00;;;;;;4990692;28;20554;-56
2023/04/26 10:47:28;;;;;;;4.05;2.58;;;18.70;52.00;;;;;;4986198;28;20275;-53
2023/04/26 10:50:09;;;;;;;4.18;2.60;;;18.70;52.00;;;;;;4990859;28;20208;-58
2023/04/26 10:53:02;;;;;;;3.05;2.10;;;18.70;52.00;;;;;;4990706;28;20650;-54
2023/04/26 10:55:42;;;;;;;3.13;2.25;;;18.80;52.00;;;;;;4990704;28;20677;-53
2023/04/26 10:58:30;;;;;;;4.43;2.72;;;18.70;52.00;;;;;;4990773;28;20228;-57
2023/04/26 11:01:10;;;;;;;5.10;2.60;;;18.70;52.00;;;;;;4990816;28;20208;-59
2023/04/26 11:03:44;;;;;;;4.00;2.47;;;18.70;52.00;;;;;;4993220;28;20665;-58
2023/04/26 11:06:15;;;;;;;3.58;2.35;;;18.70;52.00;;;;;;4991277;28;20304;-57
2023/04/26 11:08:45;;;;;;;3.50;2.22;;;18.70;52.00;;;;;;4993498;28;20209;-59
2023/04/26 11:11:18;;;;;;;4.55;2.78;;;18.70;52.10;;;;;;4991162;28;20201;-58
2023/04/26 11:13:49;;;;;;;3.00;2.58;;;18.70;52.10;;;;;;4990387;28;20290;-58
2023/04/26 11:16:20;;;;;;;3.42;2.45;;;18.60;52.00;;;;;;4990126;28;20197;-56
2023/04/26 11:18:55;;;;;;;3.40;2.30;;;18.60;52.00;;;;;;4990558;28;20229;-57
2023/04/26 11:21:27;;;;;;;2.53;2.10;;;18.60;52.10;;;;;;4989680;28;20208;-57
2023/04/26 11:23:58;;;;;;;3.95;2.15;;;18.60;52.00;;;;;;4990017;28;20208;-57
2023/04/26 11:26:35;;;;;;;3.30;2.40;;;18.60;52.00;;;;;;4990568;28;20221;-56
2023/04/26 11:29:09;;;;;;;4.32;2.38;;;18.60;52.00;;;;;;4990911;28;20200;-58
2023/04/26 11:31:39;;;;;;;2.45;1.95;;;18.60;52.00;;;;;;4992709;28;20657;-56
2023/04/26 11:34:12;;;;;;;3.13;2.17;;;18.60;52.00;;;;;;5000103;28;20200;-58
2023/04/26 11:36:43;;;;;;;3.60;2.53;;;18.60;52.00;;;;;;4998271;28;20213;-58
2023/04/26 11:39:14;;;;;;;4.28;2.22;;;18.60;52.00;;;;;;4989750;28;20193;-58
2023/04/26 11:41:45;;;;;;;3.63;2.20;;;18.60;52.00;;;;;;4990993;28;20240;-58
2023/04/26 11:44:19;;;;;;;3.80;2.00;;;18.60;52.00;;;;;;4994261;28;20201;-56
2023/04/26 11:46:50;;;;;;;2.83;1.92;;;18.60;52.00;;;;;;4995084;28;20228;-56
2023/04/26 11:49:23;;;;;;;3.63;1.85;;;18.60;52.00;;;;;;4994721;28;20194;-54
2023/04/26 11:51:54;;;;;;;3.13;2.38;;;18.50;52.00;;;;;;4994405;28;20202;-56
2023/04/26 11:54:32;;;;;;;2.13;1.85;;;18.50;52.00;;;;;;4994570;28;20197;-55
2023/04/26 11:57:03;;;;;;;2.17;1.83;;;18.50;52.00;;;;;;4994582;28;20220;-53
2023/04/26 11:59:33;;;;;;;3.15;2.25;;;18.50;52.00;;;;;;4994352;28;20201;-59
2023/04/26 12:02:08;;;;;;;3.85;2.00;;;18.50;52.00;;;;;;4997453;28;20650;-55
2023/04/26 12:04:42;;;;;;;2.97;1.90;;;18.50;52.00;;;;;;4994131;28;20649;-55
2023/04/26 12:07:13;;;;;;;3.45;2.20;;;18.50;52.00;;;;;;4994718;28;20272;-54
2023/04/26 12:09:44;;;;;;;3.38;1.95;;;18.50;52.00;;;;;;4993841;28;20658;-55
2023/04/26 12:12:14;;;;;;;2.90;1.95;;;18.50;52.00;;;;;;4993344;28;20194;-56
2023/04/26 12:14:45;;;;;;;2.53;1.60;;;18.50;52.00;;;;;;4993072;28;20194;-56
2023/04/26 12:17:18;;;;;;;3.05;1.85;;;18.40;52.00;;;;;;4997597;28;20263;-55
2023/04/26 12:19:52;;;;;;;3.08;1.80;;;18.40;52.00;;;;;;5000266;28;20210;-55
2023/04/26 12:22:24;;;;;;;2.47;1.92;;;18.40;52.00;;;;;;4993408;28;20201;-56
2023/04/26 12:25:07;;;;;;;2.72;1.63;;;18.40;52.00;;;;;;4993603;28;20190;-54
2023/04/26 12:27:38;;;;;;;2.05;1.60;;;18.40;52.00;;;;;;4993152;28;20280;-52
2023/04/26 12:30:10;;;;;;;2.25;1.75;;;18.40;52.00;;;;;;4989841;28;20194;-53
2023/04/26 12:32:40;;;;;;;2.53;1.60;;;18.40;52.00;;;;;;4993123;28;20205;-55
2023/04/26 12:35:13;;;;;;;3.17;1.98;;;18.40;52.00;;;;;;4992459;28;20186;-55
2023/04/26 12:37:44;;;;;;;2.25;1.55;;;18.30;52.00;;;;;;4994578;28;20221;-55
2023/04/26 12:40:15;;;;;;;2.28;1.70;;;18.30;52.00;;;;;;4992989;28;20190;-55
2023/04/26 12:42:45;;;;;;;2.88;1.65;;;18.30;52.00;;;;;;4993520;28;20200;-56
2023/04/26 12:45:17;;;;;;;2.80;1.70;;;18.30;52.00;;;;;;4993684;28;20197;-55
2023/04/26 12:47:47;;;;;;;3.78;2.00;;;18.30;52.00;;;;;;4993180;28;20209;-53
2023/04/26 12:50:20;;;;;;;3.95;2.17;;;18.30;52.00;;;;;;4993047;28;20189;-54
2023/04/26 12:52:51;;;;;;;3.05;1.92;;;18.30;52.00;;;;;;4990628;28;20213;-54
2023/04/26 12:55:22;;;;;;;2.97;1.80;;;18.30;52.00;;;;;;4992673;28;20192;-52
2023/04/26 12:57:53;;;;;;;2.15;1.60;;;18.30;52.10;;;;;;4990704;28;20217;-50
2023/04/26 13:00:23;;;;;;;2.40;1.65;;;18.20;52.00;;;;;;4991654;28;20201;-53
2023/04/26 13:02:54;;;;;;;2.15;1.58;;;18.20;52.00;;;;;;5004892;28;20224;-49
2023/04/26 13:05:28;;;;;;;2.28;1.50;;;18.20;52.00;;;;;;4996493;28;20280;-53
2023/04/26 13:08:00;;;;;;;3.42;1.83;;;18.20;52.00;;;;;;4989292;28;20220;-53
2023/04/26 13:10:31;;;;;;;2.58;1.92;;;18.20;52.00;;;;;;4992299;28;20665;-55
2023/04/26 13:13:02;;;;;;;2.15;1.70;;;18.20;52.00;;;;;;4990248;28;20561;-49
2023/04/26 13:15:33;;;;;;;3.97;1.70;;;18.20;52.00;;;;;;4994575;28;20244;-48
2023/04/26 13:18:03;;;;;;;2.58;1.80;;;18.20;52.00;;;;;;4991278;28;20233;-57